createdAt,value
2023-05-19T00:01:02.768Z,6.50
2023-05-19T00:03:31.823Z,7.50
2023-05-19T00:06:03.768Z,6.47
2023-05-19T00:08:32.857Z,5.80
2023-05-19T00:11:01.515Z,6.57
2023-05-19T00:13:30.595Z,6.00
2023-05-19T00:15:59.198Z,6.20
2023-05-19T00:18:29.847Z,6.57
2023-05-19T00:20:58.026Z,5.10
2023-05-19T00:23:27.464Z,6.90
2023-05-19T00:25:55.571Z,5.50
2023-05-19T00:28:23.652Z,5.23
2023-05-19T00:30:52.531Z,6.00
2023-05-19T00:33:20.629Z,6.30
2023-05-19T00:35:48.723Z,5.30
2023-05-19T00:38:16.821Z,5.90
2023-05-19T00:40:46.997Z,6.77
2023-05-19T00:43:15.089Z,5.73
2023-05-19T00:45:43.223Z,5.70
2023-05-19T00:48:11.330Z,6.80
2023-05-19T00:50:39.668Z,5.70
2023-05-19T00:53:08.115Z,6.70
2023-05-19T00:55:40.528Z,6.43
2023-05-19T00:58:11.727Z,6.90
2023-05-19T01:00:40.505Z,5.80
2023-05-19T01:03:11.506Z,6.83
2023-05-19T01:05:41.650Z,6.73
2023-05-19T01:08:10.207Z,6.27
2023-05-19T01:10:38.674Z,7.00
2023-05-19T01:13:07.633Z,6.80
2023-05-19T01:15:46.468Z,6.50
2023-05-19T01:18:18.806Z,6.43
2023-05-19T01:20:52.696Z,7.10
2023-05-19T01:23:38.014Z,7.57
2023-05-19T01:26:47.854Z,5.93
2023-05-19T01:29:42.014Z,6.27
2023-05-19T01:32:13.023Z,6.23
2023-05-19T01:34:45.247Z,5.70
2023-05-19T01:37:14.333Z,6.17
2023-05-19T01:39:43.914Z,6.07
2023-05-19T01:42:13.074Z,6.33
2023-05-19T01:44:41.582Z,5.93
2023-05-19T01:47:11.945Z,5.57
2023-05-19T01:49:40.057Z,5.57
2023-05-19T01:52:08.297Z,5.73
2023-05-19T01:54:36.437Z,5.90
2023-05-19T01:57:11.587Z,5.40
2023-05-19T01:59:53.582Z,5.70
2023-05-19T02:02:31.515Z,6.30
2023-05-19T02:05:08.985Z,5.73
2023-05-19T02:07:45.398Z,6.17
2023-05-19T02:10:20.568Z,6.20
2023-05-19T02:12:51.760Z,6.63
2023-05-19T02:15:23.186Z,6.20
2023-05-19T02:17:54.672Z,6.03
2023-05-19T02:20:23.190Z,6.53
2023-05-19T02:22:51.300Z,5.97
2023-05-19T02:25:19.661Z,6.10
2023-05-19T02:27:49.120Z,5.10
2023-05-19T02:30:17.297Z,6.53
2023-05-19T02:32:46.901Z,5.73
2023-05-19T02:35:16.568Z,5.67
2023-05-19T02:37:44.697Z,5.63
2023-05-19T02:40:13.031Z,5.70
2023-05-19T02:42:41.179Z,5.87
2023-05-19T02:45:10.099Z,5.57
2023-05-19T02:47:38.426Z,6.00
2023-05-19T02:50:07.919Z,5.40
2023-05-19T02:52:37.422Z,4.97
2023-05-19T02:55:06.381Z,5.73
2023-05-19T02:57:36.031Z,6.13
2023-05-19T03:00:05.917Z,6.13
2023-05-19T03:02:35.478Z,5.60
2023-05-19T03:05:04.024Z,5.93
2023-05-19T03:07:33.704Z,5.20
2023-05-19T03:10:05.602Z,5.50
2023-05-19T03:12:33.909Z,4.63
2023-05-19T03:15:02.166Z,5.43
2023-05-19T03:17:33.867Z,5.90
2023-05-19T03:20:02.637Z,5.67
2023-05-19T03:22:30.744Z,5.30
2023-05-19T03:24:58.864Z,5.00
2023-05-19T03:27:28.326Z,5.23
2023-05-19T03:29:56.447Z,5.47
2023-05-19T03:32:24.687Z,5.53
2023-05-19T03:34:52.917Z,6.23
2023-05-19T03:37:21.202Z,6.00
2023-05-19T03:39:49.337Z,5.90
2023-05-19T03:42:17.785Z,5.33
2023-05-19T03:44:47.218Z,5.70
2023-05-19T03:47:15.347Z,6.17
2023-05-19T03:49:43.475Z,6.43
2023-05-19T03:52:12.981Z,6.00
2023-05-19T03:54:42.690Z,5.80
2023-05-19T03:57:11.521Z,5.60
2023-05-19T03:59:41.358Z,6.30
2023-05-19T04:02:11.061Z,6.00
2023-05-19T04:04:39.242Z,5.40
2023-05-19T04:07:08.019Z,6.03
2023-05-19T04:09:37.638Z,6.57
2023-05-19T04:12:06.356Z,5.43
2023-05-19T04:14:34.435Z,6.47
2023-05-19T04:17:02.634Z,6.33
2023-05-19T04:19:32.223Z,6.03
2023-05-19T04:22:00.447Z,6.03
2023-05-19T04:24:28.580Z,6.07
2023-05-19T04:26:56.781Z,6.40
2023-05-19T04:29:24.869Z,6.70
2023-05-19T04:31:52.973Z,6.60
2023-05-19T04:34:21.044Z,5.50
2023-05-19T04:36:53.239Z,5.00
2023-05-19T04:39:21.730Z,6.20
2023-05-19T04:41:49.845Z,6.27
2023-05-19T04:44:18.634Z,6.53
2023-05-19T04:46:46.838Z,6.43
2023-05-19T04:49:14.976Z,6.03
2023-05-19T04:51:43.085Z,6.10
2023-05-19T04:54:12.624Z,6.30
2023-05-19T04:56:42.057Z,6.60
2023-05-19T04:59:10.236Z,6.60
2023-05-19T05:01:40.388Z,5.70
2023-05-19T05:04:08.866Z,6.33
2023-05-19T05:06:38.718Z,5.30
2023-05-19T05:09:06.867Z,6.80
2023-05-19T05:11:37.024Z,6.90
2023-05-19T05:14:05.539Z,6.60
2023-05-19T05:16:34.260Z,6.60
2023-05-19T05:19:02.959Z,7.00
2023-05-19T05:21:32.040Z,6.17
2023-05-19T05:24:00.564Z,6.30
2023-05-19T05:26:34.374Z,5.90
2023-05-19T05:29:04.092Z,6.43
2023-05-19T05:31:32.550Z,6.63
2023-05-19T05:34:01.010Z,7.43
2023-05-19T05:36:30.799Z,5.87
2023-05-19T05:38:59.477Z,6.63
2023-05-19T05:41:29.326Z,7.07
2023-05-19T05:43:57.423Z,6.10
2023-05-19T05:46:27.127Z,6.73
2023-05-19T05:48:55.822Z,6.60
2023-05-19T05:51:24.657Z,6.07
2023-05-19T05:53:54.883Z,6.60
2023-05-19T05:56:23.668Z,7.33
2023-05-19T05:58:52.081Z,6.47
2023-05-19T06:01:21.028Z,6.93
2023-05-19T06:03:50.587Z,6.40
2023-05-19T06:06:18.738Z,6.17
2023-05-19T06:08:46.841Z,6.60
2023-05-19T06:11:14.967Z,6.60
2023-05-19T06:13:43.187Z,6.73
2023-05-19T06:16:11.569Z,6.40
2023-05-19T06:18:40.227Z,7.40
2023-05-19T06:21:10.355Z,7.63
2023-05-19T06:23:38.576Z,7.10
2023-05-19T06:26:06.808Z,8.60
2023-05-19T06:28:35.080Z,7.53
2023-05-19T06:31:03.385Z,8.30
2023-05-19T06:33:31.550Z,7.40
2023-05-19T06:35:59.652Z,8.03
2023-05-19T06:38:29.122Z,6.57
2023-05-19T06:40:57.236Z,7.60
2023-05-19T06:43:25.806Z,9.47
2023-05-19T06:45:53.943Z,7.80
2023-05-19T06:48:22.045Z,7.97
2023-05-19T06:50:50.660Z,8.43
2023-05-19T06:53:20.503Z,8.90
2023-05-19T06:55:58.868Z,9.60
2023-05-19T06:58:28.259Z,7.00
2023-05-19T07:00:56.386Z,7.50
2023-05-19T07:03:24.591Z,9.20
2023-05-19T07:05:52.824Z,7.63
2023-05-19T07:08:22.125Z,8.20
2023-05-19T07:10:51.575Z,9.03
2023-05-19T07:13:19.670Z,9.40
2023-05-19T07:15:49.001Z,8.90
2023-05-19T07:18:17.453Z,7.10
2023-05-19T07:20:45.555Z,7.60
2023-05-19T07:23:15.403Z,7.40
2023-05-19T07:25:44.793Z,8.73
2023-05-19T07:28:14.233Z,8.07
2023-05-19T07:30:42.445Z,7.80
2023-05-19T07:33:10.905Z,7.67
2023-05-19T07:35:39.199Z,7.80
2023-05-19T07:38:07.499Z,8.30
2023-05-19T07:40:35.635Z,8.90
2023-05-19T07:43:03.772Z,7.40
2023-05-19T07:45:33.245Z,5.80
2023-05-19T07:48:01.461Z,8.20
2023-05-19T07:50:29.859Z,7.10
2023-05-19T07:52:57.956Z,7.40
2023-05-19T07:55:26.365Z,7.50
2023-05-19T07:57:54.559Z,7.77
2023-05-19T08:00:22.849Z,7.77
2023-05-19T08:02:53.078Z,8.07
2023-05-19T08:05:21.486Z,8.63
2023-05-19T08:07:49.613Z,8.50
2023-05-19T08:10:17.849Z,8.70
2023-05-19T08:12:46.073Z,8.70
2023-05-19T08:15:14.283Z,7.80
2023-05-19T08:17:42.407Z,8.30
2023-05-19T08:20:12.874Z,7.33
2023-05-19T08:22:41.223Z,8.40
2023-05-19T08:25:09.806Z,7.90
2023-05-19T08:27:37.898Z,8.30
2023-05-19T08:30:07.127Z,11.30
2023-05-19T08:32:35.408Z,8.30
2023-05-19T08:35:03.576Z,7.20
2023-05-19T08:37:34.075Z,6.77
2023-05-19T08:40:04.621Z,6.87
2023-05-19T08:42:33.186Z,7.07
2023-05-19T08:45:01.766Z,6.97
2023-05-19T08:47:30.669Z,6.10
2023-05-19T08:50:07.424Z,6.33
2023-05-19T08:52:49.549Z,6.80
2023-05-19T08:55:31.071Z,6.60
2023-05-19T08:57:59.893Z,6.90
2023-05-19T09:00:29.602Z,6.63
2023-05-19T09:03:10.860Z,6.00
2023-05-19T09:05:47.040Z,5.60
2023-05-19T09:08:16.691Z,6.57
2023-05-19T09:10:44.865Z,6.43
2023-05-19T09:13:12.949Z,7.77
2023-05-19T09:15:43.558Z,7.47
2023-05-19T09:18:14.345Z,6.60
2023-05-19T09:20:43.724Z,7.30
2023-05-19T09:23:15.050Z,6.20
2023-05-19T09:25:51.774Z,6.70
2023-05-19T09:28:27.112Z,6.43
2023-05-19T09:31:05.489Z,6.63
2023-05-19T09:33:35.526Z,7.10
2023-05-19T09:36:05.580Z,6.13
2023-05-19T09:38:34.149Z,7.17
2023-05-19T09:41:03.692Z,6.73
2023-05-19T09:43:33.526Z,6.77
2023-05-19T09:46:04.571Z,6.50
2023-05-19T09:48:32.700Z,5.67
2023-05-19T09:51:02.447Z,6.70
2023-05-19T09:53:31.458Z,7.10
2023-05-19T09:55:59.794Z,6.33
2023-05-19T09:58:34.626Z,6.17
2023-05-19T10:01:03.178Z,6.27
2023-05-19T10:03:32.614Z,6.23
2023-05-19T10:06:01.996Z,6.53
2023-05-19T10:08:31.874Z,7.67
2023-05-19T10:11:01.165Z,6.43
2023-05-19T10:13:30.890Z,7.47
2023-05-19T10:16:00.478Z,7.00
2023-05-19T10:18:29.674Z,7.10
2023-05-19T10:20:59.004Z,6.17
2023-05-19T10:23:27.181Z,6.93
2023-05-19T10:25:58.092Z,7.07
2023-05-19T10:28:31.851Z,7.20
2023-05-19T10:31:03.772Z,6.67
2023-05-19T10:33:43.106Z,7.20
2023-05-19T10:36:31.183Z,5.50
2023-05-19T10:39:07.407Z,6.80
2023-05-19T10:41:43.956Z,6.10
2023-05-19T10:44:22.423Z,6.23
2023-05-19T10:46:54.140Z,6.13
2023-05-19T10:49:24.052Z,6.60
2023-05-19T10:51:53.641Z,6.73
2023-05-19T10:54:41.080Z,7.30
2023-05-19T10:57:10.080Z,5.93
2023-05-19T10:59:39.388Z,5.87
2023-05-19T11:02:09.898Z,6.60
2023-05-19T11:04:49.526Z,5.40
2023-05-19T11:07:21.624Z,5.10
2023-05-19T11:09:52.667Z,4.57
2023-05-19T11:12:25.216Z,4.30
2023-05-19T11:14:54.654Z,4.33
2023-05-19T11:17:27.602Z,3.50
2023-05-19T11:19:56.929Z,4.03
2023-05-19T11:22:26.734Z,4.27
2023-05-19T11:24:56.593Z,4.37
2023-05-19T11:27:27.367Z,4.50
2023-05-19T11:29:57.132Z,5.07
2023-05-19T11:32:29.711Z,4.87
2023-05-19T11:34:58.808Z,5.13
2023-05-19T11:37:27.013Z,5.30
2023-05-19T11:39:55.104Z,4.43
2023-05-19T11:42:23.247Z,4.70
2023-05-19T11:44:51.472Z,4.97
2023-05-19T11:47:19.586Z,4.57
2023-05-19T11:49:52.596Z,4.23
2023-05-19T11:52:23.642Z,4.57
2023-05-19T11:54:52.419Z,4.70
2023-05-19T11:57:21.027Z,4.47
2023-05-19T11:59:49.851Z,4.43
2023-05-19T12:02:19.838Z,4.10
2023-05-19T12:04:49.226Z,3.63
2023-05-19T12:07:20.562Z,4.00
2023-05-19T12:09:48.913Z,4.20
2023-05-19T12:12:18.780Z,4.43
2023-05-19T12:14:48.203Z,3.87
2023-05-19T12:17:18.192Z,3.47
2023-05-19T12:19:47.336Z,4.30
2023-05-19T12:22:16.670Z,3.93
2023-05-19T12:24:47.444Z,3.60
2023-05-19T12:27:19.411Z,4.73
2023-05-19T12:29:52.183Z,3.30
2023-05-19T12:32:20.410Z,3.73
2023-05-19T12:34:49.209Z,4.93
2023-05-19T12:37:17.568Z,4.33
2023-05-19T12:39:47.261Z,4.20
2023-05-19T12:42:17.525Z,3.17
2023-05-19T12:44:48.031Z,3.40
2023-05-19T12:47:19.773Z,3.80
2023-05-19T12:49:57.843Z,3.60
2023-05-19T12:52:26.756Z,4.03
2023-05-19T12:55:01.634Z,3.63
2023-05-19T12:57:31.565Z,3.43
2023-05-19T13:00:06.719Z,3.30
2023-05-19T13:02:36.808Z,3.30
2023-05-19T13:05:05.774Z,2.97
2023-05-19T13:07:35.667Z,4.07
2023-05-19T13:10:06.666Z,3.60
2023-05-19T13:12:34.933Z,3.50
2023-05-19T13:15:03.015Z,3.20
2023-05-19T13:17:31.155Z,3.67
2023-05-19T13:19:59.305Z,3.47
2023-05-19T13:22:27.491Z,3.70
2023-05-19T13:24:58.760Z,3.50
2023-05-19T13:27:28.350Z,3.47
2023-05-19T13:29:56.459Z,4.60
2023-05-19T13:32:24.660Z,4.27
2023-05-19T13:34:52.836Z,3.90
2023-05-19T13:37:20.989Z,3.63
2023-05-19T13:39:49.094Z,4.43
2023-05-19T13:42:17.504Z,3.70
2023-05-19T13:44:48.617Z,3.80
2023-05-19T13:47:16.910Z,3.67
2023-05-19T13:49:45.092Z,3.63
2023-05-19T13:52:13.325Z,3.50
2023-05-19T13:54:41.573Z,3.77
2023-05-19T13:57:09.719Z,3.13
2023-05-19T13:59:45.937Z,2.07
2023-05-19T14:02:22.795Z,2.10
2023-05-19T14:04:50.957Z,2.87
2023-05-19T14:07:19.592Z,2.07
2023-05-19T14:09:47.737Z,2.03
2023-05-19T14:12:15.837Z,1.80
2023-05-19T14:14:43.976Z,1.43
2023-05-19T14:17:13.327Z,1.70
2023-05-19T14:19:42.856Z,1.63
2023-05-19T14:22:10.932Z,1.53
2023-05-19T14:24:39.014Z,1.57
2023-05-19T14:27:07.404Z,1.20
2023-05-19T14:29:35.531Z,1.67
2023-05-19T14:32:03.956Z,1.63
2023-05-19T14:34:32.254Z,1.90
2023-05-19T14:37:01.850Z,1.97
2023-05-19T14:39:31.293Z,1.60
2023-05-19T14:42:00.964Z,2.10
2023-05-19T14:44:32.965Z,2.30
2023-05-19T14:47:02.095Z,1.87
2023-05-19T14:49:30.286Z,1.90
2023-05-19T14:51:58.381Z,1.73
2023-05-19T14:54:28.151Z,1.50
2023-05-19T14:56:56.296Z,2.57
2023-05-19T14:59:25.049Z,1.60
2023-05-19T15:01:53.170Z,2.00
2023-05-19T15:04:21.453Z,2.40
2023-05-19T15:06:58.108Z,1.20
2023-05-19T15:09:38.621Z,1.60
2023-05-19T15:12:07.327Z,1.60
2023-05-19T15:14:35.436Z,1.80
2023-05-19T15:17:03.613Z,1.50
2023-05-19T15:19:31.887Z,1.10
2023-05-19T15:21:59.990Z,1.67
2023-05-19T15:24:28.454Z,1.53
2023-05-19T15:26:57.975Z,1.97
2023-05-19T15:29:26.214Z,1.40
2023-05-19T15:31:54.372Z,1.93
2023-05-19T15:34:22.590Z,1.50
2023-05-19T15:36:50.706Z,1.70
2023-05-19T15:39:18.836Z,1.80
2023-05-19T15:41:46.981Z,1.97
2023-05-19T15:44:16.459Z,2.17
2023-05-19T15:46:44.774Z,1.50
2023-05-19T15:49:12.979Z,1.77
2023-05-19T15:51:41.388Z,2.37
2023-05-19T15:54:09.495Z,1.70
2023-05-19T15:56:37.597Z,2.20
2023-05-19T15:59:05.680Z,1.67
2023-05-19T16:01:35.331Z,2.27
2023-05-19T16:04:03.997Z,2.00
2023-05-19T16:06:32.310Z,2.47
2023-05-19T16:09:00.431Z,1.97
2023-05-19T16:11:28.733Z,1.83
2023-05-19T16:13:56.849Z,2.87
2023-05-19T16:16:25.027Z,2.90
2023-05-19T16:18:54.542Z,2.60
2023-05-19T16:21:22.693Z,1.80
2023-05-19T16:23:50.860Z,2.27
2023-05-19T16:26:18.938Z,2.30
2023-05-19T16:28:47.026Z,2.20
2023-05-19T16:31:15.100Z,1.93
2023-05-19T16:33:43.199Z,2.17
2023-05-19T16:36:12.655Z,2.33
2023-05-19T16:38:40.832Z,1.93
2023-05-19T16:41:12.561Z,1.63
2023-05-19T16:43:40.791Z,2.47
2023-05-19T16:46:09.891Z,2.00
2023-05-19T16:48:38.069Z,1.80
2023-05-19T16:51:06.420Z,2.60
2023-05-19T16:53:35.900Z,2.03
2023-05-19T16:56:04.075Z,2.07
2023-05-19T16:58:32.271Z,2.10
2023-05-19T17:01:00.406Z,2.07
2023-05-19T17:03:28.739Z,2.53
2023-05-19T17:05:56.921Z,2.33
2023-05-19T17:08:25.029Z,2.20
2023-05-19T17:10:54.514Z,2.30
2023-05-19T17:13:22.602Z,2.10
2023-05-19T17:15:53.505Z,2.50
2023-05-19T17:18:21.622Z,2.37
2023-05-19T17:20:49.775Z,2.00
2023-05-19T17:23:17.989Z,2.83
2023-05-19T17:25:46.116Z,2.33
2023-05-19T17:28:16.502Z,2.37
2023-05-19T17:30:44.625Z,2.00
2023-05-19T17:33:12.943Z,2.27
2023-05-19T17:35:42.266Z,2.70
2023-05-19T17:38:10.399Z,3.13
2023-05-19T17:40:39.487Z,2.50
2023-05-19T17:43:09.503Z,3.13
2023-05-19T17:45:38.964Z,2.97
2023-05-19T17:48:07.899Z,2.30
2023-05-19T17:50:36.167Z,2.83
2023-05-19T17:53:04.845Z,3.90
2023-05-19T17:55:33.537Z,3.40
2023-05-19T17:58:02.165Z,2.80
2023-05-19T18:00:30.908Z,3.20
2023-05-19T18:03:01.815Z,3.90
2023-05-19T18:05:30.663Z,2.87
2023-05-19T18:07:59.237Z,3.97
2023-05-19T18:10:28.443Z,2.73
2023-05-19T18:12:56.557Z,3.00
2023-05-19T18:15:24.826Z,4.70
2023-05-19T18:17:53.069Z,3.60
2023-05-19T18:20:22.627Z,3.23
2023-05-19T18:22:50.858Z,3.27
2023-05-19T18:25:20.105Z,3.77
2023-05-19T18:27:48.329Z,4.17
2023-05-19T18:30:16.498Z,3.40
2023-05-19T18:32:44.680Z,3.80
2023-05-19T18:35:12.848Z,3.73
2023-05-19T18:37:42.326Z,3.90
2023-05-19T18:40:11.149Z,3.40
2023-05-19T18:42:39.254Z,3.40
2023-05-19T18:45:08.291Z,3.90
2023-05-19T18:47:36.676Z,3.13
2023-05-19T18:50:05.239Z,3.93
2023-05-19T18:52:33.327Z,4.17
2023-05-19T18:55:03.427Z,3.43
2023-05-19T18:57:31.597Z,3.80
2023-05-19T19:00:00.137Z,4.13
2023-05-19T19:02:28.900Z,4.33
2023-05-19T19:04:58.070Z,4.90
2023-05-19T19:07:26.904Z,3.83
2023-05-19T19:09:55.035Z,4.00
2023-05-19T19:12:24.876Z,4.40
2023-05-19T19:14:53.024Z,4.43
2023-05-19T19:17:21.473Z,4.27
2023-05-19T19:19:49.939Z,4.63
2023-05-19T19:22:18.129Z,4.70
2023-05-19T19:24:46.307Z,4.67
2023-05-19T19:27:16.274Z,4.43
2023-05-19T19:29:45.913Z,4.40
2023-05-19T19:32:14.461Z,4.07
2023-05-19T19:34:42.602Z,4.93
2023-05-19T19:37:11.118Z,5.10
2023-05-19T19:39:39.488Z,4.70
2023-05-19T19:42:07.594Z,4.80
2023-05-19T19:44:35.729Z,4.30
2023-05-19T19:47:06.201Z,4.43
2023-05-19T19:49:34.345Z,4.40
2023-05-19T19:52:02.686Z,5.23
2023-05-19T19:54:30.776Z,5.00
2023-05-19T19:56:58.875Z,4.27
2023-05-19T19:59:27.244Z,5.87
2023-05-19T20:01:55.379Z,5.33
2023-05-19T20:04:25.010Z,4.60
2023-05-19T20:06:53.356Z,6.00
2023-05-19T20:09:21.473Z,5.10
2023-05-19T20:11:49.574Z,5.40
2023-05-19T20:14:18.889Z,5.90
2023-05-19T20:16:47.205Z,5.67
2023-05-19T20:19:15.455Z,5.70
2023-05-19T20:21:45.085Z,5.80
2023-05-19T20:24:13.163Z,6.30
2023-05-19T20:26:41.241Z,6.27
2023-05-19T20:29:09.469Z,6.20
2023-05-19T20:31:37.597Z,6.50
2023-05-19T20:34:05.828Z,6.07
2023-05-19T20:36:34.030Z,6.13
2023-05-19T20:39:03.776Z,6.70
2023-05-19T20:41:31.915Z,6.13
2023-05-19T20:44:00.016Z,6.23
2023-05-19T20:46:28.373Z,6.40
2023-05-19T20:48:56.669Z,6.03
2023-05-19T20:51:25.296Z,6.73
2023-05-19T20:53:53.495Z,6.17
2023-05-19T20:56:23.245Z,6.47
2023-05-19T20:58:51.395Z,7.07
2023-05-19T21:01:19.566Z,6.67
2023-05-19T21:03:47.694Z,6.87
2023-05-19T21:06:15.775Z,6.90
2023-05-19T21:08:43.881Z,6.97
2023-05-19T21:11:12.044Z,7.10
2023-05-19T21:13:41.499Z,7.30
2023-05-19T21:16:09.758Z,6.60
2023-05-19T21:18:37.877Z,7.40
2023-05-19T21:21:06.174Z,7.60
2023-05-19T21:23:34.327Z,7.77
2023-05-19T21:26:02.409Z,7.10
2023-05-19T21:28:30.588Z,6.90
2023-05-19T21:31:00.220Z,6.80
2023-05-19T21:33:28.380Z,6.83
2023-05-19T21:35:58.289Z,7.27
2023-05-19T21:38:26.457Z,6.53
2023-05-19T21:40:54.601Z,8.07
2023-05-19T21:43:23.222Z,6.73
2023-05-19T21:45:51.356Z,7.60
2023-05-19T21:48:21.519Z,6.37
2023-05-19T21:50:54.388Z,7.57
2023-05-19T21:53:22.683Z,7.87
2023-05-19T21:55:50.801Z,7.70
2023-05-19T21:58:19.020Z,6.93
2023-05-19T22:00:50.683Z,7.47
2023-05-19T22:03:20.508Z,7.80
2023-05-19T22:05:51.889Z,8.47
2023-05-19T22:08:20.951Z,7.50
2023-05-19T22:10:51.102Z,8.10
2023-05-19T22:13:19.481Z,7.10
2023-05-19T22:15:47.777Z,7.60
2023-05-19T22:18:15.847Z,7.47
2023-05-19T22:20:45.513Z,7.70
2023-05-19T22:23:13.594Z,8.27
2023-05-19T22:25:41.981Z,7.10
2023-05-19T22:28:10.147Z,6.60
2023-05-19T22:30:41.115Z,7.47
2023-05-19T22:33:09.941Z,7.27
2023-05-19T22:35:38.288Z,7.60
2023-05-19T22:38:10.288Z,8.83
2023-05-19T22:40:39.082Z,9.07
2023-05-19T22:43:07.171Z,6.87
2023-05-19T22:45:36.348Z,8.27
2023-05-19T22:48:05.251Z,7.87
2023-05-19T22:50:33.435Z,8.57
2023-05-19T22:53:01.528Z,8.93
2023-05-19T22:55:31.145Z,9.50
2023-05-19T22:57:59.421Z,8.20
2023-05-19T23:00:27.506Z,9.90
2023-05-19T23:02:55.684Z,9.13
2023-05-19T23:05:23.806Z,9.50
2023-05-19T23:07:51.890Z,9.80
2023-05-19T23:10:20.076Z,10.23
2023-05-19T23:12:50.064Z,9.60
2023-05-19T23:15:18.159Z,10.37
2023-05-19T23:17:46.455Z,9.50
2023-05-19T23:20:15.230Z,9.60
2023-05-19T23:22:43.334Z,9.70
2023-05-19T23:25:11.503Z,10.63
2023-05-19T23:27:39.635Z,10.50
2023-05-19T23:30:10.407Z,11.50
2023-05-19T23:32:38.564Z,10.30
2023-05-19T23:35:14.605Z,11.50
2023-05-19T23:37:42.850Z,11.00
2023-05-19T23:40:11.513Z,10.77
2023-05-19T23:42:39.670Z,12.20
2023-05-19T23:45:10.191Z,11.00
2023-05-19T23:47:38.433Z,12.70
2023-05-19T23:50:07.013Z,12.80
2023-05-19T23:52:35.141Z,11.40
2023-05-19T23:55:03.583Z,12.00
2023-05-19T23:57:31.698Z,12.30
